Johnston, Rhode Island
Current Conditions -  °F | °C
As of 2:55 AM on Saturday 20 Dec 2014 (Local Time) from KSFZ Reporting Station
Overcast Overcast  
Wind Chill: 17°   Ceiling: 3000
Heat Index: 27°   Visibility: 10mi
Dew Point: 18°   Wind: 9mph
Humidity: 69%   Direction: 10°N
Pressure: 30.15"   Gusts: NA
Location:  41.83°N, 71.5°W
Report Text: KSFZ 200755Z 01008KT 10SM OVC030 M03/M08 A3015 RMK AO1
Loading
Personal Weather Stations






























Interactive Weather Map New forecast layout! Learn more

10-Day Weather Forecast

Advertisements
Track Severe Weather on mobile